sensor_id;sensor_type;location;lat;lon;timestamp;P1;durP1;ratioP1;P2;durP2;ratioP2
4517;SDS011;2271;49.464;11.070;2023-08-20T00:01:25;6.75;;;5.20;;
4517;SDS011;2271;49.464;11.070;2023-08-20T00:03:52;6.15;;;5.43;;
4517;SDS011;2271;49.464;11.070;2023-08-20T00:06:19;6.78;;;5.88;;
4517;SDS011;2271;49.464;11.070;2023-08-20T00:08:46;9.95;;;5.72;;
4517;SDS011;2271;49.464;11.070;2023-08-20T00:11:12;8.18;;;5.32;;
4517;SDS011;2271;49.464;11.070;2023-08-20T00:13:38;9.30;;;5.82;;
4517;SDS011;2271;49.464;11.070;2023-08-20T00:16:04;7.68;;;5.70;;
4517;SDS011;2271;49.464;11.070;2023-08-20T00:18:30;13.68;;;6.55;;
4517;SDS011;2271;49.464;11.070;2023-08-20T00:20:56;9.45;;;6.00;;
4517;SDS011;2271;49.464;11.070;2023-08-20T00:23:22;9.70;;;6.00;;
4517;SDS011;2271;49.464;11.070;2023-08-20T00:25:48;7.90;;;6.07;;
4517;SDS011;2271;49.464;11.070;2023-08-20T00:28:14;9.18;;;5.88;;
4517;SDS011;2271;49.464;11.070;2023-08-20T00:30:40;7.18;;;6.05;;
4517;SDS011;2271;49.464;11.070;2023-08-20T00:33:06;7.30;;;5.90;;
4517;SDS011;2271;49.464;11.070;2023-08-20T00:35:31;6.90;;;5.45;;
4517;SDS011;2271;49.464;11.070;2023-08-20T00:37:57;9.63;;;5.75;;
4517;SDS011;2271;49.464;11.070;2023-08-20T00:40:23;6.35;;;5.72;;
4517;SDS011;2271;49.464;11.070;2023-08-20T00:42:49;9.88;;;6.35;;
4517;SDS011;2271;49.464;11.070;2023-08-20T00:45:15;7.28;;;5.50;;
4517;SDS011;2271;49.464;11.070;2023-08-20T00:47:43;9.65;;;6.07;;
4517;SDS011;2271;49.464;11.070;2023-08-20T00:50:09;7.10;;;5.82;;
4517;SDS011;2271;49.464;11.070;2023-08-20T00:52:36;8.55;;;5.50;;
4517;SDS011;2271;49.464;11.070;2023-08-20T00:55:10;6.88;;;5.47;;
4517;SDS011;2271;49.464;11.070;2023-08-20T00:57:38;10.52;;;6.45;;
4517;SDS011;2271;49.464;11.070;2023-08-20T01:00:04;9.43;;;5.75;;
4517;SDS011;2271;49.464;11.070;2023-08-20T01:02:32;9.98;;;6.20;;
4517;SDS011;2271;49.464;11.070;2023-08-20T01:04:59;7.47;;;5.97;;
4517;SDS011;2271;49.464;11.070;2023-08-20T01:13:00;7.07;;;6.05;;
4517;SDS011;2271;49.464;11.070;2023-08-20T01:15:26;7.50;;;5.95;;
4517;SDS011;2271;49.464;11.070;2023-08-20T01:17:52;9.30;;;6.15;;
4517;SDS011;2271;49.464;11.070;2023-08-20T01:20:18;8.70;;;6.47;;
4517;SDS011;2271;49.464;11.070;2023-08-20T01:22:52;6.70;;;5.63;;
4517;SDS011;2271;49.464;11.070;2023-08-20T01:30:55;7.72;;;5.47;;
4517;SDS011;2271;49.464;11.070;2023-08-20T01:33:22;9.88;;;5.97;;
4517;SDS011;2271;49.464;11.070;2023-08-20T01:35:49;8.35;;;6.18;;
4517;SDS011;2271;49.464;11.070;2023-08-20T01:38:16;6.07;;;4.70;;
4517;SDS011;2271;49.464;11.070;2023-08-20T01:40:41;8.20;;;5.63;;
4517;SDS011;2271;49.464;11.070;2023-08-20T01:43:07;7.57;;;5.68;;
4517;SDS011;2271;49.464;11.070;2023-08-20T01:45:33;10.13;;;5.88;;
4517;SDS011;2271;49.464;11.070;2023-08-20T01:47:58;9.35;;;5.82;;
4517;SDS011;2271;49.464;11.070;2023-08-20T01:50:24;8.13;;;5.70;;
4517;SDS011;2271;49.464;11.070;2023-08-20T01:52:50;7.95;;;5.80;;
4517;SDS011;2271;49.464;11.070;2023-08-20T01:55:15;6.72;;;5.70;;
4517;SDS011;2271;49.464;11.070;2023-08-20T01:57:41;10.88;;;6.38;;
4517;SDS011;2271;49.464;11.070;2023-08-20T02:00:07;9.93;;;5.80;;
4517;SDS011;2271;49.464;11.070;2023-08-20T02:02:33;6.28;;;5.00;;
4517;SDS011;2271;49.464;11.070;2023-08-20T02:04:59;9.98;;;5.60;;
4517;SDS011;2271;49.464;11.070;2023-08-20T02:07:25;9.95;;;6.18;;
4517;SDS011;2271;49.464;11.070;2023-08-20T02:09:51;5.85;;;5.35;;
4517;SDS011;2271;49.464;11.070;2023-08-20T02:12:17;10.25;;;6.47;;
4517;SDS011;2271;49.464;11.070;2023-08-20T02:14:43;9.20;;;6.00;;
4517;SDS011;2271;49.464;11.070;2023-08-20T02:17:08;7.15;;;5.40;;
4517;SDS011;2271;49.464;11.070;2023-08-20T02:19:34;9.68;;;6.65;;
4517;SDS011;2271;49.464;11.070;2023-08-20T02:22:00;10.55;;;5.93;;
4517;SDS011;2271;49.464;11.070;2023-08-20T02:24:26;7.57;;;5.75;;
4517;SDS011;2271;49.464;11.070;2023-08-20T02:26:51;5.90;;;5.30;;
4517;SDS011;2271;49.464;11.070;2023-08-20T02:29:17;8.98;;;5.32;;
4517;SDS011;2271;49.464;11.070;2023-08-20T02:31:42;8.07;;;5.78;;
4517;SDS011;2271;49.464;11.070;2023-08-20T02:34:08;7.97;;;5.93;;
4517;SDS011;2271;49.464;11.070;2023-08-20T02:36:34;9.00;;;6.18;;
4517;SDS011;2271;49.464;11.070;2023-08-20T02:38:59;12.63;;;9.07;;
4517;SDS011;2271;49.464;11.070;2023-08-20T02:41:25;12.43;;;7.63;;
4517;SDS011;2271;49.464;11.070;2023-08-20T02:43:50;9.82;;;6.03;;
4517;SDS011;2271;49.464;11.070;2023-08-20T02:46:16;8.32;;;5.90;;
4517;SDS011;2271;49.464;11.070;2023-08-20T02:48:41;9.80;;;5.57;;
4517;SDS011;2271;49.464;11.070;2023-08-20T02:51:07;6.07;;;5.43;;
4517;SDS011;2271;49.464;11.070;2023-08-20T02:53:32;6.78;;;5.03;;
4517;SDS011;2271;49.464;11.070;2023-08-20T02:55:58;8.45;;;5.60;;
4517;SDS011;2271;49.464;11.070;2023-08-20T02:58:24;6.97;;;5.38;;
4517;SDS011;2271;49.464;11.070;2023-08-20T03:00:50;10.23;;;6.20;;
4517;SDS011;2271;49.464;11.070;2023-08-20T03:03:16;8.75;;;6.00;;
4517;SDS011;2271;49.464;11.070;2023-08-20T03:05:42;7.07;;;5.70;;
4517;SDS011;2271;49.464;11.070;2023-08-20T03:08:07;8.77;;;5.45;;
4517;SDS011;2271;49.464;11.070;2023-08-20T03:10:33;8.93;;;5.05;;
4517;SDS011;2271;49.464;11.070;2023-08-20T03:13:00;7.55;;;6.03;;
4517;SDS011;2271;49.464;11.070;2023-08-20T03:15:26;8.52;;;5.72;;
4517;SDS011;2271;49.464;11.070;2023-08-20T03:17:53;6.95;;;5.28;;
4517;SDS011;2271;49.464;11.070;2023-08-20T03:20:18;5.88;;;5.28;;
4517;SDS011;2271;49.464;11.070;2023-08-20T03:22:44;9.63;;;5.03;;
4517;SDS011;2271;49.464;11.070;2023-08-20T03:25:09;9.98;;;5.90;;
4517;SDS011;2271;49.464;11.070;2023-08-20T03:27:35;9.23;;;6.03;;
4517;SDS011;2271;49.464;11.070;2023-08-20T03:30:01;6.72;;;5.70;;
4517;SDS011;2271;49.464;11.070;2023-08-20T03:32:27;8.93;;;6.00;;
4517;SDS011;2271;49.464;11.070;2023-08-20T03:34:53;10.40;;;6.13;;
4517;SDS011;2271;49.464;11.070;2023-08-20T03:37:20;7.00;;;5.03;;
4517;SDS011;2271;49.464;11.070;2023-08-20T03:39:47;7.60;;;5.75;;
4517;SDS011;2271;49.464;11.070;2023-08-20T03:42:13;6.63;;;5.32;;
4517;SDS011;2271;49.464;11.070;2023-08-20T03:44:38;6.68;;;5.80;;
4517;SDS011;2271;49.464;11.070;2023-08-20T03:47:04;10.63;;;6.43;;
4517;SDS011;2271;49.464;11.070;2023-08-20T03:49:30;12.70;;;5.80;;
4517;SDS011;2271;49.464;11.070;2023-08-20T03:51:55;12.27;;;8.80;;
4517;SDS011;2271;49.464;11.070;2023-08-20T03:54:21;8.43;;;6.70;;
4517;SDS011;2271;49.464;11.070;2023-08-20T03:56:47;7.82;;;5.57;;
4517;SDS011;2271;49.464;11.070;2023-08-20T03:59:12;8.48;;;6.13;;
4517;SDS011;2271;49.464;11.070;2023-08-20T04:01:38;7.68;;;5.88;;
4517;SDS011;2271;49.464;11.070;2023-08-20T04:04:04;8.23;;;5.13;;
4517;SDS011;2271;49.464;11.070;2023-08-20T04:06:30;11.93;;;6.07;;
4517;SDS011;2271;49.464;11.070;2023-08-20T04:08:55;7.63;;;4.95;;
4517;SDS011;2271;49.464;11.070;2023-08-20T04:11:21;7.53;;;5.90;;
4517;SDS011;2271;49.464;11.070;2023-08-20T04:13:46;9.60;;;5.65;;
4517;SDS011;2271;49.464;11.070;2023-08-20T04:16:12;9.32;;;5.38;;
4517;SDS011;2271;49.464;11.070;2023-08-20T04:18:38;8.80;;;6.28;;
4517;SDS011;2271;49.464;11.070;2023-08-20T04:21:04;14.50;;;7.07;;
4517;SDS011;2271;49.464;11.070;2023-08-20T04:23:30;8.32;;;5.50;;
4517;SDS011;2271;49.464;11.070;2023-08-20T04:25:56;11.77;;;6.28;;
4517;SDS011;2271;49.464;11.070;2023-08-20T04:28:21;6.60;;;5.88;;
4517;SDS011;2271;49.464;11.070;2023-08-20T04:30:47;10.20;;;5.43;;
4517;SDS011;2271;49.464;11.070;2023-08-20T04:33:14;7.47;;;5.78;;
4517;SDS011;2271;49.464;11.070;2023-08-20T04:35:39;7.65;;;6.35;;
4517;SDS011;2271;49.464;11.070;2023-08-20T04:38:05;7.90;;;5.80;;
4517;SDS011;2271;49.464;11.070;2023-08-20T04:40:30;8.20;;;6.18;;
4517;SDS011;2271;49.464;11.070;2023-08-20T04:42:56;8.45;;;5.80;;
4517;SDS011;2271;49.464;11.070;2023-08-20T04:45:22;8.73;;;6.22;;
4517;SDS011;2271;49.464;11.070;2023-08-20T04:47:47;8.68;;;6.05;;
4517;SDS011;2271;49.464;11.070;2023-08-20T04:50:13;14.38;;;6.57;;
4517;SDS011;2271;49.464;11.070;2023-08-20T04:52:38;7.57;;;6.35;;
4517;SDS011;2271;49.464;11.070;2023-08-20T04:55:05;7.07;;;5.80;;
4517;SDS011;2271;49.464;11.070;2023-08-20T04:57:32;7.40;;;6.20;;
4517;SDS011;2271;49.464;11.070;2023-08-20T04:59:58;7.82;;;6.35;;
4517;SDS011;2271;49.464;11.070;2023-08-20T05:02:23;10.43;;;6.88;;
4517;SDS011;2271;49.464;11.070;2023-08-20T05:04:49;8.35;;;6.07;;
4517;SDS011;2271;49.464;11.070;2023-08-20T05:07:15;6.22;;;5.50;;
4517;SDS011;2271;49.464;11.070;2023-08-20T05:09:41;10.60;;;6.60;;
4517;SDS011;2271;49.464;11.070;2023-08-20T05:12:06;10.75;;;6.20;;
4517;SDS011;2271;49.464;11.070;2023-08-20T05:14:32;7.57;;;6.00;;
4517;SDS011;2271;49.464;11.070;2023-08-20T05:16:58;8.80;;;5.72;;
4517;SDS011;2271;49.464;11.070;2023-08-20T05:19:23;6.82;;;5.88;;
4517;SDS011;2271;49.464;11.070;2023-08-20T05:21:49;10.65;;;6.40;;
4517;SDS011;2271;49.464;11.070;2023-08-20T05:24:15;7.38;;;6.30;;
4517;SDS011;2271;49.464;11.070;2023-08-20T05:26:40;7.63;;;5.88;;
4517;SDS011;2271;49.464;11.070;2023-08-20T05:29:06;9.85;;;6.60;;
4517;SDS011;2271;49.464;11.070;2023-08-20T05:31:31;9.25;;;6.72;;
4517;SDS011;2271;49.464;11.070;2023-08-20T05:33:57;7.90;;;6.95;;
4517;SDS011;2271;49.464;11.070;2023-08-20T05:36:23;9.75;;;6.80;;
4517;SDS011;2271;49.464;11.070;2023-08-20T05:38:49;7.47;;;6.65;;
4517;SDS011;2271;49.464;11.070;2023-08-20T05:41:14;9.90;;;6.57;;
4517;SDS011;2271;49.464;11.070;2023-08-20T05:43:40;10.98;;;7.80;;
4517;SDS011;2271;49.464;11.070;2023-08-20T05:46:06;13.55;;;7.00;;
4517;SDS011;2271;49.464;11.070;2023-08-20T05:48:31;8.30;;;6.30;;
4517;SDS011;2271;49.464;11.070;2023-08-20T05:50:57;8.73;;;6.38;;
4517;SDS011;2271;49.464;11.070;2023-08-20T05:53:22;9.73;;;6.57;;
4517;SDS011;2271;49.464;11.070;2023-08-20T05:55:48;10.07;;;6.75;;
4517;SDS011;2271;49.464;11.070;2023-08-20T05:58:14;11.77;;;7.20;;
4517;SDS011;2271;49.464;11.070;2023-08-20T06:00:40;12.40;;;6.97;;
4517;SDS011;2271;49.464;11.070;2023-08-20T06:03:05;8.32;;;6.50;;
4517;SDS011;2271;49.464;11.070;2023-08-20T06:05:32;10.38;;;6.63;;
4517;SDS011;2271;49.464;11.070;2023-08-20T06:08:01;11.43;;;7.05;;
4517;SDS011;2271;49.464;11.070;2023-08-20T06:10:27;9.10;;;6.78;;
4517;SDS011;2271;49.464;11.070;2023-08-20T06:12:53;10.63;;;7.35;;
4517;SDS011;2271;49.464;11.070;2023-08-20T06:15:19;10.32;;;7.00;;
4517;SDS011;2271;49.464;11.070;2023-08-20T06:17:44;10.93;;;6.57;;
4517;SDS011;2271;49.464;11.070;2023-08-20T06:20:10;9.82;;;6.93;;
4517;SDS011;2271;49.464;11.070;2023-08-20T06:22:37;8.50;;;6.40;;
4517;SDS011;2271;49.464;11.070;2023-08-20T06:25:03;10.35;;;6.80;;
4517;SDS011;2271;49.464;11.070;2023-08-20T06:27:29;8.40;;;6.47;;
4517;SDS011;2271;49.464;11.070;2023-08-20T06:29:55;8.75;;;6.60;;
4517;SDS011;2271;49.464;11.070;2023-08-20T06:32:21;8.48;;;6.50;;
4517;SDS011;2271;49.464;11.070;2023-08-20T06:34:47;6.78;;;5.72;;
4517;SDS011;2271;49.464;11.070;2023-08-20T06:37:13;6.70;;;6.05;;
4517;SDS011;2271;49.464;11.070;2023-08-20T06:39:39;8.20;;;6.30;;
4517;SDS011;2271;49.464;11.070;2023-08-20T06:42:04;9.73;;;6.30;;
4517;SDS011;2271;49.464;11.070;2023-08-20T06:44:30;6.93;;;6.10;;
4517;SDS011;2271;49.464;11.070;2023-08-20T06:46:55;12.07;;;6.78;;
4517;SDS011;2271;49.464;11.070;2023-08-20T06:49:21;8.13;;;5.88;;
4517;SDS011;2271;49.464;11.070;2023-08-20T06:51:47;7.60;;;6.57;;
4517;SDS011;2271;49.464;11.070;2023-08-20T06:54:14;7.40;;;6.53;;
4517;SDS011;2271;49.464;11.070;2023-08-20T06:56:40;10.23;;;6.47;;
4517;SDS011;2271;49.464;11.070;2023-08-20T06:59:06;10.95;;;6.95;;
4517;SDS011;2271;49.464;11.070;2023-08-20T07:01:31;9.55;;;6.78;;
4517;SDS011;2271;49.464;11.070;2023-08-20T07:03:57;12.32;;;6.57;;
4517;SDS011;2271;49.464;11.070;2023-08-20T07:06:23;9.15;;;5.78;;
4517;SDS011;2271;49.464;11.070;2023-08-20T07:08:49;10.27;;;6.05;;
4517;SDS011;2271;49.464;11.070;2023-08-20T07:11:15;7.25;;;6.38;;
4517;SDS011;2271;49.464;11.070;2023-08-20T07:13:40;8.98;;;6.85;;
4517;SDS011;2271;49.464;11.070;2023-08-20T07:16:06;8.40;;;5.75;;
4517;SDS011;2271;49.464;11.070;2023-08-20T07:18:32;10.10;;;5.95;;
4517;SDS011;2271;49.464;11.070;2023-08-20T07:20:57;7.20;;;5.78;;
4517;SDS011;2271;49.464;11.070;2023-08-20T07:23:23;7.47;;;6.22;;
4517;SDS011;2271;49.464;11.070;2023-08-20T07:25:49;8.00;;;5.82;;
4517;SDS011;2271;49.464;11.070;2023-08-20T07:28:17;7.30;;;5.45;;
4517;SDS011;2271;49.464;11.070;2023-08-20T07:30:51;6.32;;;5.72;;
4517;SDS011;2271;49.464;11.070;2023-08-20T07:33:17;7.63;;;5.80;;
4517;SDS011;2271;49.464;11.070;2023-08-20T07:35:43;10.38;;;5.85;;
4517;SDS011;2271;49.464;11.070;2023-08-20T07:38:09;6.88;;;6.20;;
4517;SDS011;2271;49.464;11.070;2023-08-20T07:40:34;6.43;;;5.82;;
4517;SDS011;2271;49.464;11.070;2023-08-20T07:43:02;6.78;;;5.70;;
4517;SDS011;2271;49.464;11.070;2023-08-20T07:45:28;10.38;;;5.50;;
4517;SDS011;2271;49.464;11.070;2023-08-20T07:47:53;8.05;;;6.07;;
4517;SDS011;2271;49.464;11.070;2023-08-20T07:50:20;6.65;;;5.38;;
4517;SDS011;2271;49.464;11.070;2023-08-20T07:52:46;6.72;;;5.25;;
4517;SDS011;2271;49.464;11.070;2023-08-20T07:55:12;6.63;;;6.03;;
4517;SDS011;2271;49.464;11.070;2023-08-20T07:57:37;8.43;;;5.57;;
4517;SDS011;2271;49.464;11.070;2023-08-20T08:00:03;6.18;;;5.45;;
4517;SDS011;2271;49.464;11.070;2023-08-20T08:02:29;6.00;;;5.35;;
4517;SDS011;2271;49.464;11.070;2023-08-20T08:04:55;7.80;;;6.53;;
4517;SDS011;2271;49.464;11.070;2023-08-20T08:07:21;5.97;;;5.35;;
4517;SDS011;2271;49.464;11.070;2023-08-20T08:09:46;10.38;;;5.60;;
4517;SDS011;2271;49.464;11.070;2023-08-20T08:12:12;7.43;;;5.28;;
4517;SDS011;2271;49.464;11.070;2023-08-20T08:14:37;5.70;;;5.20;;
4517;SDS011;2271;49.464;11.070;2023-08-20T08:17:03;7.50;;;5.00;;
4517;SDS011;2271;49.464;11.070;2023-08-20T08:19:29;6.93;;;4.85;;
4517;SDS011;2271;49.464;11.070;2023-08-20T08:21:55;8.00;;;5.20;;
4517;SDS011;2271;49.464;11.070;2023-08-20T08:24:21;6.00;;;4.95;;
4517;SDS011;2271;49.464;11.070;2023-08-20T08:26:47;5.28;;;4.68;;
4517;SDS011;2271;49.464;11.070;2023-08-20T08:29:12;6.00;;;4.88;;
4517;SDS011;2271;49.464;11.070;2023-08-20T08:31:38;5.68;;;4.55;;
4517;SDS011;2271;49.464;11.070;2023-08-20T08:34:04;7.90;;;5.07;;
4517;SDS011;2271;49.464;11.070;2023-08-20T08:36:30;8.88;;;4.97;;
4517;SDS011;2271;49.464;11.070;2023-08-20T08:38:55;5.88;;;5.28;;
4517;SDS011;2271;49.464;11.070;2023-08-20T08:41:22;7.00;;;4.88;;
4517;SDS011;2271;49.464;11.070;2023-08-20T08:43:50;5.15;;;4.50;;
4517;SDS011;2271;49.464;11.070;2023-08-20T08:46:16;4.88;;;4.47;;
4517;SDS011;2271;49.464;11.070;2023-08-20T08:48:43;7.57;;;4.82;;
4517;SDS011;2271;49.464;11.070;2023-08-20T08:51:11;5.85;;;4.50;;
4517;SDS011;2271;49.464;11.070;2023-08-20T08:53:37;5.43;;;4.93;;
4517;SDS011;2271;49.464;11.070;2023-08-20T08:56:04;5.88;;;4.30;;
4517;SDS011;2271;49.464;11.070;2023-08-20T08:58:31;7.25;;;4.63;;
4517;SDS011;2271;49.464;11.070;2023-08-20T09:00:57;6.28;;;5.05;;
4517;SDS011;2271;49.464;11.070;2023-08-20T09:03:23;4.80;;;4.32;;
4517;SDS011;2271;49.464;11.070;2023-08-20T09:05:54;5.25;;;4.75;;
4517;SDS011;2271;49.464;11.070;2023-08-20T09:08:22;6.95;;;5.47;;
4517;SDS011;2271;49.464;11.070;2023-08-20T09:10:51;5.35;;;4.82;;
4517;SDS011;2271;49.464;11.070;2023-08-20T09:13:23;6.80;;;4.85;;
4517;SDS011;2271;49.464;11.070;2023-08-20T09:15:50;7.68;;;5.15;;
4517;SDS011;2271;49.464;11.070;2023-08-20T09:18:19;7.10;;;5.40;;
4517;SDS011;2271;49.464;11.070;2023-08-20T09:20:47;7.00;;;4.60;;
4517;SDS011;2271;49.464;11.070;2023-08-20T09:23:14;4.90;;;4.35;;
4517;SDS011;2271;49.464;11.070;2023-08-20T09:25:40;5.13;;;4.07;;
4517;SDS011;2271;49.464;11.070;2023-08-20T09:28:07;9.02;;;4.50;;
4517;SDS011;2271;49.464;11.070;2023-08-20T09:30:32;4.60;;;4.15;;
4517;SDS011;2271;49.464;11.070;2023-08-20T09:33:03;6.00;;;4.13;;
4517;SDS011;2271;49.464;11.070;2023-08-20T09:35:29;4.75;;;3.75;;
4517;SDS011;2271;49.464;11.070;2023-08-20T09:38:02;5.97;;;4.85;;
4517;SDS011;2271;49.464;11.070;2023-08-20T09:40:29;4.90;;;4.03;;
4517;SDS011;2271;49.464;11.070;2023-08-20T09:42:55;5.75;;;4.00;;
4517;SDS011;2271;49.464;11.070;2023-08-20T09:45:22;5.72;;;4.03;;
4517;SDS011;2271;49.464;11.070;2023-08-20T09:47:51;5.38;;;4.68;;
4517;SDS011;2271;49.464;11.070;2023-08-20T09:50:21;9.82;;;4.05;;
4517;SDS011;2271;49.464;11.070;2023-08-20T09:52:58;5.00;;;4.00;;
4517;SDS011;2271;49.464;11.070;2023-08-20T09:55:29;5.15;;;3.42;;
4517;SDS011;2271;49.464;11.070;2023-08-20T09:57:59;3.50;;;3.20;;
4517;SDS011;2271;49.464;11.070;2023-08-20T10:00:26;9.77;;;4.95;;
4517;SDS011;2271;49.464;11.070;2023-08-20T10:02:53;7.00;;;4.00;;
4517;SDS011;2271;49.464;11.070;2023-08-20T10:05:19;3.90;;;3.40;;
4517;SDS011;2271;49.464;11.070;2023-08-20T10:07:46;5.38;;;3.90;;
4517;SDS011;2271;49.464;11.070;2023-08-20T10:10:12;5.50;;;3.72;;
4517;SDS011;2271;49.464;11.070;2023-08-20T10:12:38;3.53;;;3.20;;
4517;SDS011;2271;49.464;11.070;2023-08-20T10:15:07;5.68;;;3.88;;
4517;SDS011;2271;49.464;11.070;2023-08-20T10:17:34;4.43;;;3.78;;
4517;SDS011;2271;49.464;11.070;2023-08-20T10:20:02;4.25;;;3.85;;
4517;SDS011;2271;49.464;11.070;2023-08-20T10:22:48;6.63;;;4.40;;
4517;SDS011;2271;49.464;11.070;2023-08-20T10:25:23;6.43;;;4.22;;
4517;SDS011;2271;49.464;11.070;2023-08-20T10:27:50;7.28;;;4.07;;
4517;SDS011;2271;49.464;11.070;2023-08-20T10:30:17;6.65;;;3.90;;
4517;SDS011;2271;49.464;11.070;2023-08-20T10:32:52;6.43;;;4.05;;
4517;SDS011;2271;49.464;11.070;2023-08-20T10:48:43;4.75;;;4.10;;
4517;SDS011;2271;49.464;11.070;2023-08-20T10:51:30;7.18;;;4.18;;
4517;SDS011;2271;49.464;11.070;2023-08-20T10:59:06;5.55;;;3.60;;
4517;SDS011;2271;49.464;11.070;2023-08-20T11:01:33;5.57;;;3.83;;
4517;SDS011;2271;49.464;11.070;2023-08-20T11:03:59;4.15;;;3.63;;
4517;SDS011;2271;49.464;11.070;2023-08-20T11:06:32;6.68;;;3.85;;
4517;SDS011;2271;49.464;11.070;2023-08-20T11:08:59;5.50;;;4.38;;
4517;SDS011;2271;49.464;11.070;2023-08-20T11:11:25;7.45;;;3.85;;
4517;SDS011;2271;49.464;11.070;2023-08-20T11:13:50;5.18;;;4.00;;
4517;SDS011;2271;49.464;11.070;2023-08-20T11:16:17;5.47;;;3.90;;
4517;SDS011;2271;49.464;11.070;2023-08-20T11:18:44;4.00;;;3.60;;
4517;SDS011;2271;49.464;11.070;2023-08-20T11:21:11;7.72;;;3.83;;
4517;SDS011;2271;49.464;11.070;2023-08-20T11:23:38;6.00;;;4.43;;
4517;SDS011;2271;49.464;11.070;2023-08-20T11:26:07;7.05;;;4.38;;
4517;SDS011;2271;49.464;11.070;2023-08-20T11:28:33;7.78;;;4.20;;
4517;SDS011;2271;49.464;11.070;2023-08-20T11:30:58;7.07;;;4.18;;
4517;SDS011;2271;49.464;11.070;2023-08-20T11:33:26;7.03;;;4.13;;
4517;SDS011;2271;49.464;11.070;2023-08-20T11:35:52;4.82;;;4.25;;
4517;SDS011;2271;49.464;11.070;2023-08-20T11:38:19;6.18;;;3.88;;
4517;SDS011;2271;49.464;11.070;2023-08-20T11:40:46;6.63;;;4.53;;
4517;SDS011;2271;49.464;11.070;2023-08-20T11:43:12;5.50;;;3.85;;
4517;SDS011;2271;49.464;11.070;2023-08-20T11:45:45;5.05;;;3.90;;
4517;SDS011;2271;49.464;11.070;2023-08-20T11:48:12;3.92;;;3.40;;
4517;SDS011;2271;49.464;11.070;2023-08-20T11:50:41;4.78;;;4.00;;
4517;SDS011;2271;49.464;11.070;2023-08-20T11:53:08;9.50;;;3.72;;
4517;SDS011;2271;49.464;11.070;2023-08-20T11:55:35;5.10;;;3.13;;
4517;SDS011;2271;49.464;11.070;2023-08-20T11:58:01;4.45;;;3.70;;
4517;SDS011;2271;49.464;11.070;2023-08-20T12:00:27;5.32;;;3.42;;
4517;SDS011;2271;49.464;11.070;2023-08-20T12:02:55;7.43;;;3.53;;
4517;SDS011;2271;49.464;11.070;2023-08-20T12:05:21;3.88;;;3.25;;
4517;SDS011;2271;49.464;11.070;2023-08-20T12:07:58;2.63;;;2.38;;
4517;SDS011;2271;49.464;11.070;2023-08-20T12:10:26;5.07;;;3.42;;
4517;SDS011;2271;49.464;11.070;2023-08-20T12:12:53;6.22;;;3.75;;
4517;SDS011;2271;49.464;11.070;2023-08-20T12:15:20;4.63;;;3.30;;
4517;SDS011;2271;49.464;11.070;2023-08-20T12:20:22;6.15;;;3.30;;
4517;SDS011;2271;49.464;11.070;2023-08-20T12:22:48;4.93;;;3.15;;
4517;SDS011;2271;49.464;11.070;2023-08-20T12:25:14;4.60;;;3.50;;
4517;SDS011;2271;49.464;11.070;2023-08-20T12:27:39;5.57;;;2.88;;
4517;SDS011;2271;49.464;11.070;2023-08-20T12:30:06;6.13;;;3.55;;
4517;SDS011;2271;49.464;11.070;2023-08-20T12:32:32;3.60;;;3.30;;
4517;SDS011;2271;49.464;11.070;2023-08-20T12:34:58;4.88;;;3.47;;
4517;SDS011;2271;49.464;11.070;2023-08-20T12:37:23;4.25;;;3.78;;
4517;SDS011;2271;49.464;11.070;2023-08-20T12:39:49;4.35;;;3.83;;
4517;SDS011;2271;49.464;11.070;2023-08-20T12:42:14;5.63;;;3.65;;
4517;SDS011;2271;49.464;11.070;2023-08-20T12:44:40;6.68;;;3.50;;
4517;SDS011;2271;49.464;11.070;2023-08-20T12:47:07;5.10;;;3.35;;
4517;SDS011;2271;49.464;11.070;2023-08-20T12:49:32;6.47;;;4.18;;
4517;SDS011;2271;49.464;11.070;2023-08-20T12:51:58;3.97;;;3.40;;
4517;SDS011;2271;49.464;11.070;2023-08-20T12:54:24;5.35;;;3.60;;
4517;SDS011;2271;49.464;11.070;2023-08-20T12:56:49;4.43;;;3.20;;
4517;SDS011;2271;49.464;11.070;2023-08-20T12:59:15;3.63;;;3.03;;
4517;SDS011;2271;49.464;11.070;2023-08-20T13:01:41;4.15;;;3.50;;
4517;SDS011;2271;49.464;11.070;2023-08-20T13:04:06;5.63;;;3.75;;
4517;SDS011;2271;49.464;11.070;2023-08-20T13:06:33;4.13;;;3.15;;
4517;SDS011;2271;49.464;11.070;2023-08-20T13:08:59;4.63;;;2.92;;
4517;SDS011;2271;49.464;11.070;2023-08-20T13:11:25;5.78;;;3.58;;
4517;SDS011;2271;49.464;11.070;2023-08-20T13:13:52;4.85;;;3.05;;
4517;SDS011;2271;49.464;11.070;2023-08-20T13:16:18;7.57;;;3.03;;
4517;SDS011;2271;49.464;11.070;2023-08-20T13:18:44;5.35;;;3.67;;
4517;SDS011;2271;49.464;11.070;2023-08-20T13:21:10;5.00;;;3.42;;
4517;SDS011;2271;49.464;11.070;2023-08-20T13:23:36;4.13;;;2.95;;
4517;SDS011;2271;49.464;11.070;2023-08-20T13:26:02;5.90;;;3.40;;
4517;SDS011;2271;49.464;11.070;2023-08-20T13:28:28;5.45;;;2.95;;
4517;SDS011;2271;49.464;11.070;2023-08-20T13:30:53;4.97;;;3.30;;
4517;SDS011;2271;49.464;11.070;2023-08-20T13:33:19;3.85;;;3.47;;
4517;SDS011;2271;49.464;11.070;2023-08-20T13:35:44;4.80;;;3.22;;
4517;SDS011;2271;49.464;11.070;2023-08-20T13:38:11;4.18;;;3.38;;
4517;SDS011;2271;49.464;11.070;2023-08-20T13:40:37;3.65;;;2.97;;
4517;SDS011;2271;49.464;11.070;2023-08-20T13:43:02;5.22;;;3.67;;
4517;SDS011;2271;49.464;11.070;2023-08-20T13:45:28;5.20;;;3.05;;
4517;SDS011;2271;49.464;11.070;2023-08-20T13:47:54;3.55;;;3.25;;
4517;SDS011;2271;49.464;11.070;2023-08-20T13:50:20;5.50;;;3.33;;
4517;SDS011;2271;49.464;11.070;2023-08-20T13:52:46;6.32;;;3.35;;
4517;SDS011;2271;49.464;11.070;2023-08-20T13:55:12;4.57;;;3.00;;
4517;SDS011;2271;49.464;11.070;2023-08-20T13:57:38;3.63;;;2.95;;
4517;SDS011;2271;49.464;11.070;2023-08-20T14:00:04;4.15;;;3.38;;
4517;SDS011;2271;49.464;11.070;2023-08-20T14:02:37;4.78;;;3.50;;
4517;SDS011;2271;49.464;11.070;2023-08-20T14:05:03;3.20;;;2.90;;
4517;SDS011;2271;49.464;11.070;2023-08-20T14:07:30;5.75;;;3.22;;
4517;SDS011;2271;49.464;11.070;2023-08-20T14:09:55;5.68;;;2.60;;
4517;SDS011;2271;49.464;11.070;2023-08-20T14:12:21;3.67;;;2.78;;
4517;SDS011;2271;49.464;11.070;2023-08-20T14:14:47;6.65;;;3.28;;
4517;SDS011;2271;49.464;11.070;2023-08-20T14:17:12;4.82;;;3.20;;
4517;SDS011;2271;49.464;11.070;2023-08-20T14:19:38;5.28;;;2.65;;
4517;SDS011;2271;49.464;11.070;2023-08-20T14:22:03;5.22;;;3.00;;
4517;SDS011;2271;49.464;11.070;2023-08-20T14:24:29;4.07;;;2.80;;
4517;SDS011;2271;49.464;11.070;2023-08-20T14:26:54;4.22;;;3.83;;
4517;SDS011;2271;49.464;11.070;2023-08-20T14:29:20;4.63;;;2.95;;
4517;SDS011;2271;49.464;11.070;2023-08-20T14:31:46;4.68;;;3.25;;
4517;SDS011;2271;49.464;11.070;2023-08-20T14:34:12;3.83;;;3.17;;
4517;SDS011;2271;49.464;11.070;2023-08-20T14:36:37;4.05;;;2.67;;
4517;SDS011;2271;49.464;11.070;2023-08-20T14:39:05;3.38;;;2.80;;
4517;SDS011;2271;49.464;11.070;2023-08-20T14:41:30;13.82;;;12.32;;
4517;SDS011;2271;49.464;11.070;2023-08-20T14:43:56;5.43;;;4.93;;
4517;SDS011;2271;49.464;11.070;2023-08-20T14:46:22;8.90;;;3.05;;
4517;SDS011;2271;49.464;11.070;2023-08-20T14:48:47;5.05;;;3.10;;
4517;SDS011;2271;49.464;11.070;2023-08-20T14:51:13;3.92;;;3.45;;
4517;SDS011;2271;49.464;11.070;2023-08-20T14:53:39;3.75;;;3.42;;
4517;SDS011;2271;49.464;11.070;2023-08-20T14:56:04;3.47;;;2.88;;
4517;SDS011;2271;49.464;11.070;2023-08-20T14:58:30;7.28;;;3.13;;
4517;SDS011;2271;49.464;11.070;2023-08-20T15:00:56;9.07;;;3.22;;
4517;SDS011;2271;49.464;11.070;2023-08-20T15:03:22;3.38;;;2.95;;
4517;SDS011;2271;49.464;11.070;2023-08-20T15:05:47;3.53;;;2.97;;
4517;SDS011;2271;49.464;11.070;2023-08-20T15:08:13;3.42;;;2.97;;
4517;SDS011;2271;49.464;11.070;2023-08-20T15:10:39;3.80;;;2.92;;
4517;SDS011;2271;49.464;11.070;2023-08-20T15:13:05;4.18;;;3.30;;
4517;SDS011;2271;49.464;11.070;2023-08-20T15:15:31;5.90;;;3.45;;
4517;SDS011;2271;49.464;11.070;2023-08-20T15:17:56;4.45;;;3.05;;
4517;SDS011;2271;49.464;11.070;2023-08-20T15:20:22;5.90;;;3.80;;
4517;SDS011;2271;49.464;11.070;2023-08-20T15:22:48;5.50;;;3.33;;
4517;SDS011;2271;49.464;11.070;2023-08-20T15:25:13;6.43;;;3.33;;
4517;SDS011;2271;49.464;11.070;2023-08-20T15:27:40;5.90;;;3.35;;